createdAt,value
2018-11-12T00:01:01.839Z,98690.91
2018-11-12T00:03:29.191Z,98698.51
2018-11-12T00:05:56.428Z,98701.73
2018-11-12T00:08:24.030Z,98709.25
2018-11-12T00:10:51.466Z,98705.03
2018-11-12T00:13:18.988Z,98299.37
2018-11-12T00:15:46.746Z,98704.20
2018-11-12T00:18:14.508Z,98701.88
2018-11-12T00:20:41.911Z,98696.39
2018-11-12T00:23:09.432Z,98701.14
2018-11-12T00:25:36.785Z,98705.59
2018-11-12T00:28:04.338Z,98704.32
2018-11-12T00:30:31.825Z,98704.32
2018-11-12T00:32:59.091Z,98711.13
2018-11-12T00:35:26.501Z,98703.16
2018-11-12T00:37:53.895Z,98700.45
2018-11-12T00:40:21.256Z,98708.52
2018-11-12T00:42:48.659Z,98708.77
2018-11-12T00:45:16.037Z,98709.43
2018-11-12T00:47:43.533Z,98711.07
2018-11-12T00:50:12.157Z,98719.16
2018-11-12T00:52:39.646Z,98722.39
2018-11-12T00:55:08.264Z,98723.80
2018-11-12T00:57:35.498Z,98720.33
2018-11-12T01:00:02.819Z,98725.34
2018-11-12T01:02:30.106Z,98718.16
2018-11-12T01:04:57.538Z,98717.70
2018-11-12T01:07:24.866Z,98717.70
2018-11-12T01:09:52.534Z,98716.33
2018-11-12T01:12:20.189Z,98718.27
2018-11-12T01:14:47.500Z,98717.12
2018-11-12T01:17:15.071Z,98714.61
2018-11-12T01:19:42.373Z,98721.75
2018-11-12T01:22:09.710Z,98717.82
2018-11-12T01:24:37.071Z,98710.94
2018-11-12T01:27:04.426Z,98713.34
2018-11-12T01:29:31.742Z,98709.39
2018-11-12T01:31:59.038Z,98707.09
2018-11-12T01:34:26.490Z,98695.95
2018-11-12T01:36:53.863Z,98694.58
2018-11-12T01:39:21.236Z,98687.48
2018-11-12T01:41:48.907Z,98687.53
2018-11-12T01:44:16.386Z,98685.66
2018-11-12T01:46:43.824Z,98682.79
2018-11-12T01:49:11.227Z,98677.82
2018-11-12T01:51:39.013Z,98681.09
2018-11-12T01:54:06.286Z,98677.09
2018-11-12T01:56:33.547Z,98678.66
2018-11-12T01:59:00.827Z,98683.98
2018-11-12T02:01:28.181Z,98676.00
2018-11-12T02:03:55.436Z,98686.64
2018-11-12T02:06:22.854Z,98683.09
2018-11-12T02:08:50.251Z,98681.32
2018-11-12T02:11:17.775Z,98686.45
2018-11-12T02:13:45.272Z,98690.18
2018-11-12T02:16:12.657Z,98688.77
2018-11-12T02:18:40.998Z,98688.06
2018-11-12T02:21:08.578Z,98688.33
2018-11-12T02:23:36.101Z,98694.98
2018-11-12T02:26:03.353Z,98685.84
2018-11-12T02:28:30.574Z,98692.55
2018-11-12T02:30:57.773Z,98695.44
2018-11-12T02:33:25.173Z,98689.22
2018-11-12T02:35:52.397Z,98683.75
2018-11-12T02:38:20.105Z,98684.65
2018-11-12T02:40:47.318Z,98682.03
2018-11-12T02:43:14.666Z,98679.28
2018-11-12T02:45:41.942Z,98671.25
2018-11-12T02:48:09.245Z,98677.59
2018-11-12T02:50:36.461Z,98677.77
2018-11-12T02:53:04.026Z,98670.40
2018-11-12T02:55:31.592Z,98671.16
2018-11-12T02:57:58.984Z,98675.59
2018-11-12T03:00:26.390Z,98663.36
2018-11-12T03:02:53.662Z,98668.00
2018-11-12T03:05:20.992Z,98658.09
2018-11-12T03:07:48.357Z,98663.66
2018-11-12T03:10:17.692Z,98658.59
2018-11-12T03:12:45.115Z,98666.25
2018-11-12T03:15:13.120Z,98665.45
2018-11-12T03:17:41.091Z,98667.36
2018-11-12T03:20:11.084Z,98664.12
2018-11-12T03:22:38.739Z,98659.44
2018-11-12T03:25:06.926Z,98657.00
2018-11-12T03:27:34.164Z,98650.45
2018-11-12T03:30:01.467Z,98659.92
2018-11-12T03:32:29.486Z,98655.67
2018-11-12T03:34:57.594Z,98653.06
2018-11-12T03:37:25.009Z,98651.50
2018-11-12T03:39:52.385Z,98657.67
2018-11-12T03:42:19.620Z,98654.53
2018-11-12T03:44:46.974Z,98652.94
2018-11-12T03:47:14.329Z,98655.23
2018-11-12T03:49:41.894Z,98642.23
2018-11-12T03:52:09.362Z,98657.06
2018-11-12T03:54:36.649Z,98653.91
2018-11-12T03:57:04.529Z,98651.02
2018-11-12T03:59:31.815Z,98650.22
2018-11-12T04:01:59.244Z,98648.84
2018-11-12T04:04:26.592Z,98635.47
2018-11-12T04:06:53.808Z,98640.97
2018-11-12T04:09:21.381Z,98649.27
2018-11-12T04:11:48.898Z,98644.97
2018-11-12T04:14:17.746Z,98651.31
2018-11-12T04:16:45.309Z,98646.30
2018-11-12T04:19:12.714Z,98654.34
2018-11-12T04:21:39.953Z,98644.91
2018-11-12T04:24:07.446Z,98651.09
2018-11-12T04:26:34.827Z,98648.42
2018-11-12T04:29:02.352Z,98656.70
2018-11-12T04:31:29.680Z,98654.89
2018-11-12T04:33:57.649Z,98647.80
2018-11-12T04:36:24.954Z,98653.39
2018-11-12T04:38:52.278Z,98661.86
2018-11-12T04:41:19.673Z,98657.48
2018-11-12T04:43:47.584Z,98647.20
2018-11-12T04:46:14.866Z,98660.39
2018-11-12T04:48:42.111Z,98654.45
2018-11-12T04:51:09.400Z,98648.48
2018-11-12T04:53:36.849Z,98643.83
2018-11-12T04:56:04.480Z,98645.63
2018-11-12T04:58:31.807Z,98647.00
2018-11-12T05:00:59.245Z,98642.34
2018-11-12T05:03:26.620Z,98648.02
2018-11-12T05:05:53.987Z,98647.22
2018-11-12T05:08:22.150Z,98649.39
2018-11-12T05:10:49.537Z,98643.94
2018-11-12T05:13:17.251Z,98651.27
2018-11-12T05:15:44.677Z,98648.23
2018-11-12T05:18:12.027Z,98662.65
2018-11-12T05:20:39.299Z,98659.31
2018-11-12T05:23:06.568Z,98653.50
2018-11-12T05:25:33.843Z,98662.32
2018-11-12T05:28:01.190Z,98664.23
2018-11-12T05:30:29.059Z,98662.91
2018-11-12T05:32:56.994Z,98664.97
2018-11-12T05:35:25.541Z,98664.29
2018-11-12T05:37:52.972Z,98665.36
2018-11-12T05:40:21.378Z,98661.56
2018-11-12T05:42:48.781Z,98669.31
2018-11-12T05:45:17.200Z,98661.15
2018-11-12T05:47:44.526Z,98674.97
2018-11-12T05:50:14.944Z,98674.73
2018-11-12T05:52:44.086Z,98676.06
2018-11-12T05:55:12.447Z,98674.47
2018-11-12T05:57:40.646Z,98672.58
2018-11-12T06:00:09.395Z,98676.30
2018-11-12T06:02:36.883Z,98680.43
2018-11-12T06:05:05.288Z,98675.65
2018-11-12T06:07:32.789Z,98686.62
2018-11-12T06:10:00.017Z,98685.94
2018-11-12T06:12:27.293Z,98687.83
2018-11-12T06:14:54.676Z,98693.73
2018-11-12T06:17:22.235Z,98693.84
2018-11-12T06:19:49.606Z,98706.98
2018-11-12T06:22:16.823Z,98694.04
2018-11-12T06:24:44.295Z,98710.19
2018-11-12T06:27:13.152Z,98709.12
2018-11-12T06:29:40.449Z,98715.91
2018-11-12T06:32:07.853Z,98713.92
2018-11-12T06:34:35.154Z,98720.30
2018-11-12T06:37:02.410Z,98714.37
2018-11-12T06:39:29.714Z,98716.98
2018-11-12T06:41:57.058Z,98722.80
2018-11-12T06:44:24.381Z,98722.22
2018-11-12T06:46:51.896Z,98726.66
2018-11-12T06:49:19.191Z,98726.30
2018-11-12T06:51:47.350Z,98728.83
2018-11-12T06:54:14.889Z,98726.17
2018-11-12T06:56:42.284Z,98734.64
2018-11-12T06:59:09.676Z,98730.91
2018-11-12T07:01:37.284Z,98732.78
2018-11-12T07:04:05.068Z,98733.80
2018-11-12T07:06:33.070Z,98732.47
2018-11-12T07:09:00.349Z,98739.88
2018-11-12T07:11:28.033Z,98737.91
2018-11-12T07:13:55.455Z,98740.50
2018-11-12T07:16:23.154Z,98735.87
2018-11-12T07:18:50.459Z,98732.80
2018-11-12T07:21:18.002Z,98734.31
2018-11-12T07:23:45.333Z,98732.98
2018-11-12T07:26:13.382Z,98738.46
2018-11-12T07:28:40.906Z,98700.72
2018-11-12T07:31:10.096Z,98729.21
2018-11-12T07:33:37.384Z,98730.21
2018-11-12T07:36:04.983Z,98735.13
2018-11-12T07:38:32.310Z,98740.52
2018-11-12T07:40:59.536Z,98738.09
2018-11-12T07:43:26.918Z,98743.00
2018-11-12T07:45:54.212Z,98747.16
2018-11-12T07:48:21.685Z,98738.69
2018-11-12T07:50:49.252Z,98736.23
2018-11-12T07:53:16.752Z,98732.83
2018-11-12T07:55:44.234Z,98744.51
2018-11-12T07:58:11.787Z,98741.78
2018-11-12T08:00:40.380Z,98752.39
2018-11-12T08:03:09.321Z,98743.17
2018-11-12T08:05:38.231Z,98754.09
2018-11-12T08:08:05.953Z,98752.13
2018-11-12T08:10:33.640Z,98756.67
2018-11-12T08:13:01.120Z,98759.42
2018-11-12T08:15:28.729Z,98759.77
2018-11-12T08:17:56.700Z,98764.02
2018-11-12T08:20:25.122Z,98765.34
2018-11-12T08:22:52.571Z,98762.84
2018-11-12T08:25:20.126Z,98764.56
2018-11-12T08:27:48.029Z,98765.78
2018-11-12T08:30:23.994Z,98765.63
2018-11-12T08:32:53.465Z,98772.23
2018-11-12T08:35:21.611Z,98772.30
2018-11-12T08:37:49.400Z,98770.91
2018-11-12T08:40:18.011Z,98781.04
2018-11-12T08:42:45.658Z,98784.39
2018-11-12T08:45:13.339Z,98797.20
2018-11-12T08:47:41.809Z,98783.09
2018-11-12T08:50:12.076Z,98787.61
2018-11-12T08:52:40.557Z,98791.10
2018-11-12T08:55:08.802Z,98797.77
2018-11-12T08:57:36.131Z,98795.23
2018-11-12T09:00:03.993Z,98789.77
2018-11-12T09:02:31.554Z,98758.23
2018-11-12T09:04:58.994Z,98783.34
2018-11-12T09:07:26.686Z,98790.88
2018-11-12T09:09:56.427Z,98799.62
2018-11-12T09:12:23.932Z,98795.84
2018-11-12T09:14:53.349Z,98806.45
2018-11-12T09:17:23.114Z,98806.45
2018-11-12T09:19:50.493Z,98806.52
2018-11-12T09:22:17.722Z,98804.58
2018-11-12T09:24:45.312Z,98813.23
2018-11-12T09:27:12.768Z,98810.02
2018-11-12T09:29:40.329Z,98810.14
2018-11-12T09:32:09.083Z,98818.16
2018-11-12T09:34:36.678Z,98818.88
2018-11-12T09:42:03.863Z,98823.48
2018-11-12T09:44:31.284Z,98823.36
2018-11-12T09:46:58.566Z,98824.38
2018-11-12T09:49:25.819Z,98828.10
2018-11-12T09:51:53.034Z,98824.38
2018-11-12T09:54:20.349Z,98825.18
2018-11-12T09:56:49.017Z,98832.11
2018-11-12T09:59:16.501Z,98826.30
2018-11-12T10:01:45.259Z,98824.80
2018-11-12T10:04:13.250Z,98822.38
2018-11-12T10:06:41.869Z,98830.97
2018-11-12T10:09:12.033Z,98830.48
2018-11-12T10:11:40.307Z,98831.51
2018-11-12T10:14:11.507Z,98824.83
2018-11-12T10:16:40.261Z,98834.69
2018-11-12T10:19:03.930Z,98835.07
2018-11-12T10:21:31.238Z,98834.02
2018-11-12T10:23:58.752Z,98830.39
2018-11-12T10:26:26.280Z,98805.41
2018-11-12T10:28:53.463Z,98833.41
2018-11-12T10:31:21.036Z,98837.14
2018-11-12T10:33:48.506Z,98832.34
2018-11-12T10:36:15.907Z,98828.45
2018-11-12T10:38:43.169Z,98831.70
2018-11-12T10:41:10.809Z,98834.12
2018-11-12T10:43:38.044Z,98826.96
2018-11-12T10:46:05.494Z,98836.66
2018-11-12T10:48:32.821Z,98835.86
2018-11-12T10:51:05.032Z,98836.47
2018-11-12T10:53:27.482Z,98833.73
2018-11-12T10:55:54.976Z,98837.14
2018-11-12T10:58:22.169Z,98837.61
2018-11-12T11:00:55.216Z,98835.77
2018-11-12T11:03:31.090Z,98843.68
2018-11-12T11:05:58.704Z,98834.65
2018-11-12T11:08:25.873Z,98831.10
2018-11-12T11:10:54.343Z,98827.03
2018-11-12T11:13:25.114Z,98832.23
2018-11-12T11:15:52.569Z,98836.47
2018-11-12T11:18:19.875Z,98837.42
2018-11-12T11:20:47.083Z,98840.28
2018-11-12T11:23:14.477Z,98836.41
2018-11-12T11:25:41.866Z,98836.66
2018-11-12T11:28:09.169Z,98847.99
2018-11-12T11:30:36.420Z,98841.30
2018-11-12T11:33:06.497Z,98844.11
2018-11-12T11:35:34.111Z,98843.36
2018-11-12T11:38:01.498Z,98845.31
2018-11-12T11:40:28.938Z,98840.21
2018-11-12T11:42:57.758Z,98839.66
2018-11-12T11:45:25.149Z,98835.42
2018-11-12T11:47:53.239Z,98834.23
2018-11-12T11:50:22.263Z,98834.09
2018-11-12T11:52:50.553Z,98833.38
2018-11-12T11:55:19.468Z,98823.25
2018-11-12T11:57:47.254Z,98837.70
2018-11-12T12:00:19.879Z,98835.50
2018-11-12T12:02:49.265Z,98831.16
2018-11-12T12:05:17.938Z,98837.95
2018-11-12T12:07:47.665Z,98832.61
2018-11-12T12:10:16.322Z,98835.65
2018-11-12T12:12:44.239Z,98833.77
2018-11-12T12:15:13.021Z,98839.91
2018-11-12T12:17:40.326Z,98829.60
2018-11-12T12:20:09.771Z,98833.48
2018-11-12T12:22:37.094Z,98818.50
2018-11-12T12:25:05.893Z,98819.62
2018-11-12T12:27:33.301Z,98824.08
2018-11-12T12:30:00.651Z,98821.73
2018-11-12T12:32:28.056Z,98826.38
2018-11-12T12:34:55.617Z,98818.11
2018-11-12T12:37:23.174Z,98821.66
2018-11-12T12:39:50.839Z,98766.80
2018-11-12T12:42:18.298Z,98814.73
2018-11-12T12:44:45.980Z,98818.58
2018-11-12T12:47:13.148Z,98820.65
2018-11-12T12:49:40.639Z,98814.25
2018-11-12T12:52:07.930Z,98816.95
2018-11-12T12:54:35.889Z,98812.76
2018-11-12T12:57:03.204Z,98813.00
2018-11-12T12:59:30.549Z,98818.30
2018-11-12T13:01:57.881Z,98810.99
2018-11-12T13:04:25.171Z,98816.44
2018-11-12T13:06:52.455Z,98816.27
2018-11-12T13:09:19.826Z,98817.37
2018-11-12T13:11:47.056Z,98825.59
2018-11-12T13:14:14.609Z,98830.24
2018-11-12T13:16:41.869Z,98833.84
2018-11-12T13:19:09.401Z,98834.63
2018-11-12T13:21:36.665Z,98843.02
2018-11-12T13:24:03.874Z,98827.70
2018-11-12T13:26:31.220Z,98823.78
2018-11-12T13:28:58.542Z,98820.00
2018-11-12T13:31:26.051Z,98824.94
2018-11-12T13:33:53.355Z,98825.05
2018-11-12T13:36:20.564Z,98830.52
2018-11-12T13:38:47.835Z,98833.24
2018-11-12T13:41:15.122Z,98828.06
2018-11-12T13:43:42.388Z,98824.62
2018-11-12T13:46:09.761Z,98834.34
2018-11-12T13:48:36.972Z,98832.86
2018-11-12T13:51:04.763Z,98829.33
2018-11-12T13:53:32.328Z,98836.68
2018-11-12T13:55:59.668Z,98840.30
2018-11-12T13:58:27.880Z,98831.08
2018-11-12T14:00:55.442Z,98830.44
2018-11-12T14:03:22.653Z,98839.64
2018-11-12T14:05:49.830Z,98847.02
2018-11-12T14:08:17.571Z,98841.13
2018-11-12T14:10:45.110Z,98848.03
2018-11-12T14:13:12.331Z,98846.69
2018-11-12T14:15:39.682Z,98841.29
2018-11-12T14:18:07.285Z,98845.48
2018-11-12T14:20:35.319Z,98855.91
2018-11-12T14:23:02.394Z,98854.95
2018-11-12T14:25:30.056Z,98852.73
2018-11-12T14:27:57.700Z,98845.74
2018-11-12T14:30:27.905Z,98854.11
2018-11-12T14:32:55.297Z,98846.95
2018-11-12T14:35:22.693Z,98850.17
2018-11-12T14:37:49.881Z,98852.61
2018-11-12T14:40:17.953Z,98855.62
2018-11-12T14:42:51.639Z,98851.38
2018-11-12T14:45:20.033Z,98847.36
2018-11-12T14:47:48.290Z,98848.70
2018-11-12T14:50:15.597Z,98849.55
2018-11-12T14:52:42.963Z,98854.85
2018-11-12T14:55:12.383Z,98852.64
2018-11-12T14:57:39.784Z,98863.44
2018-11-12T15:00:16.661Z,98869.78
2018-11-12T15:02:44.675Z,98871.28
2018-11-12T15:05:12.332Z,98871.88
2018-11-12T15:07:39.565Z,98876.09
2018-11-12T15:10:08.547Z,98867.02
2018-11-12T15:12:35.863Z,98872.37
2018-11-12T15:15:03.841Z,98876.49
2018-11-12T15:17:31.014Z,98882.07
2018-11-12T15:19:59.218Z,98881.06
2018-11-12T15:22:26.732Z,98881.85
2018-11-12T15:24:54.049Z,98880.59
2018-11-12T15:27:21.346Z,98883.10
2018-11-12T15:29:48.605Z,98890.38
2018-11-12T15:32:15.867Z,98893.67
2018-11-12T15:34:43.234Z,98886.98
2018-11-12T15:37:11.231Z,98892.55
2018-11-12T15:39:38.486Z,98896.89
2018-11-12T15:42:06.295Z,98897.55
2018-11-12T15:44:33.535Z,98905.41
2018-11-12T15:47:00.866Z,98902.26
2018-11-12T15:49:28.210Z,98910.37
2018-11-12T15:51:56.079Z,98912.03
2018-11-12T15:54:23.377Z,98907.55
2018-11-12T15:56:50.674Z,98918.33
2018-11-12T15:59:17.911Z,98914.09
2018-11-12T16:01:45.210Z,98919.92
2018-11-12T16:04:12.789Z,98937.54
2018-11-12T16:06:40.491Z,98977.01
2018-11-12T16:09:10.884Z,99001.25
2018-11-12T16:11:38.338Z,99029.77
2018-11-12T16:14:06.677Z,99046.34
2018-11-12T16:16:33.957Z,99046.59
2018-11-12T16:19:01.304Z,99049.47
2018-11-12T16:21:28.778Z,99056.28
2018-11-12T16:23:56.299Z,99053.47
2018-11-12T16:26:24.044Z,99062.37
2018-11-12T16:28:51.378Z,99060.44
2018-11-12T16:31:19.543Z,99079.13
2018-11-12T16:33:46.781Z,99079.86
2018-11-12T16:36:14.527Z,99089.52
2018-11-12T16:38:41.717Z,99094.16
2018-11-12T16:41:08.954Z,99104.82
2018-11-12T16:43:36.359Z,99098.79
2018-11-12T16:46:03.654Z,99106.36
2018-11-12T16:48:30.838Z,99103.95
2018-11-12T16:50:58.341Z,99099.33
2018-11-12T16:53:25.536Z,99091.63
2018-11-12T16:55:52.895Z,99089.94
2018-11-12T16:58:20.279Z,99094.61
2018-11-12T17:00:47.490Z,99098.70
2018-11-12T17:03:14.743Z,99092.44
2018-11-12T17:05:41.954Z,99092.84
2018-11-12T17:08:09.250Z,99092.18
2018-11-12T17:10:36.418Z,99090.44
2018-11-12T17:13:04.011Z,99082.88
2018-11-12T17:15:31.191Z,99075.72
2018-11-12T17:17:58.636Z,99080.03
2018-11-12T17:20:25.783Z,99085.64
2018-11-12T17:22:53.056Z,99077.00
2018-11-12T17:25:20.309Z,99083.46
2018-11-12T17:27:48.538Z,99088.70
2018-11-12T17:30:20.733Z,99085.19
2018-11-12T17:32:48.409Z,99087.11
2018-11-12T17:35:16.893Z,99094.53
2018-11-12T17:37:44.298Z,99102.77
2018-11-12T17:40:16.663Z,99102.36
2018-11-12T17:42:45.037Z,99100.27
2018-11-12T17:45:14.954Z,99099.04
2018-11-12T17:47:43.121Z,99099.61
2018-11-12T17:50:10.365Z,99104.99
2018-11-12T17:52:37.846Z,99104.88
2018-11-12T17:55:05.109Z,99109.22
2018-11-12T17:57:32.454Z,99111.89
2018-11-12T17:59:59.854Z,99109.13
2018-11-12T18:02:27.495Z,99107.66
2018-11-12T18:04:54.811Z,99110.67
2018-11-12T18:07:22.107Z,99110.86
2018-11-12T18:09:49.410Z,99114.19
2018-11-12T18:12:16.727Z,99126.47
2018-11-12T18:14:44.120Z,99136.19
2018-11-12T18:17:11.362Z,99133.97
2018-11-12T18:19:38.580Z,99136.69
2018-11-12T18:22:06.395Z,99132.68
2018-11-12T18:24:33.848Z,99140.75
2018-11-12T18:27:01.183Z,99152.19
2018-11-12T18:29:28.592Z,99167.12
2018-11-12T18:31:56.090Z,99154.17
2018-11-12T18:34:23.171Z,99147.50
2018-11-12T18:36:50.331Z,99146.06
2018-11-12T18:39:18.491Z,99148.47
2018-11-12T18:41:45.712Z,99150.64
2018-11-12T18:44:13.050Z,99141.53
2018-11-12T18:46:40.366Z,99149.83
2018-11-12T18:49:07.642Z,99156.16
2018-11-12T18:51:34.880Z,99154.86
2018-11-12T18:54:02.125Z,99145.34
2018-11-12T18:56:29.422Z,99153.38
2018-11-12T18:58:56.799Z,99148.88
2018-11-12T19:01:24.085Z,99151.58
2018-11-12T19:03:51.645Z,99141.16
2018-11-12T19:06:19.291Z,99149.25
2018-11-12T19:08:46.747Z,99154.81
2018-11-12T19:11:14.006Z,99165.24
2018-11-12T19:13:41.676Z,99160.11
2018-11-12T19:16:08.911Z,99166.84
2018-11-12T19:18:36.259Z,99164.02
2018-11-12T19:21:03.771Z,99161.62
2018-11-12T19:23:31.170Z,99156.56
2018-11-12T19:25:58.460Z,99156.83
2018-11-12T19:28:25.868Z,99168.41
2018-11-12T19:30:53.150Z,99159.05
2018-11-12T19:33:20.753Z,99168.30
2018-11-12T19:35:48.084Z,99165.94
2018-11-12T19:38:15.562Z,99165.44
2018-11-12T19:40:43.093Z,99185.40
2018-11-12T19:43:10.533Z,99189.77
2018-11-12T19:45:37.836Z,99195.02
2018-11-12T19:48:05.465Z,99187.63
2018-11-12T19:50:33.033Z,99178.64
2018-11-12T19:53:01.107Z,99173.58
2018-11-12T19:55:28.522Z,99180.51
2018-11-12T19:57:55.980Z,99171.55
2018-11-12T20:00:24.594Z,99172.61
2018-11-12T20:02:53.387Z,99175.22
2018-11-12T20:05:20.738Z,99178.18
2018-11-12T20:07:47.945Z,99177.14
2018-11-12T20:10:16.623Z,99190.14
2018-11-12T20:12:44.377Z,99205.00
2018-11-12T20:15:13.134Z,99188.38
2018-11-12T20:17:41.530Z,99201.30
2018-11-12T20:20:14.607Z,99196.34
2018-11-12T20:22:42.301Z,99184.87
2018-11-12T20:25:10.822Z,99180.61
2018-11-12T20:27:37.986Z,99184.11
2018-11-12T20:30:09.261Z,99186.88
2018-11-12T20:32:36.728Z,99201.23
2018-11-12T20:35:05.844Z,99204.99
2018-11-12T20:37:33.302Z,99206.63
2018-11-12T20:40:00.779Z,99216.85
2018-11-12T20:42:28.074Z,99217.65
2018-11-12T20:44:55.388Z,99199.47
2018-11-12T20:47:22.587Z,99196.53
2018-11-12T20:49:49.998Z,99204.62
2018-11-12T20:52:17.285Z,99206.53
2018-11-12T20:54:44.797Z,99197.86
2018-11-12T20:57:12.192Z,99219.52
2018-11-12T20:59:39.924Z,99221.95
2018-11-12T21:02:11.576Z,99223.02
2018-11-12T21:04:39.031Z,99222.78
2018-11-12T21:07:06.411Z,99214.81
2018-11-12T21:09:34.684Z,99220.88
2018-11-12T21:12:05.947Z,99220.65
2018-11-12T21:14:33.728Z,99213.55
2018-11-12T21:17:01.163Z,99217.34
2018-11-12T21:19:28.575Z,99208.08
2018-11-12T21:21:55.903Z,99207.55
2018-11-12T21:24:23.214Z,99203.55
2018-11-12T21:26:50.430Z,99197.19
2018-11-12T21:29:17.800Z,99185.44
2018-11-12T21:31:45.024Z,99199.02
2018-11-12T21:34:12.670Z,99203.99
2018-11-12T21:36:40.227Z,99210.51
2018-11-12T21:39:10.825Z,99217.27
2018-11-12T21:41:42.526Z,99232.73
2018-11-12T21:44:09.764Z,99236.88
2018-11-12T21:46:37.446Z,99235.25
2018-11-12T21:49:05.107Z,99240.55
2018-11-12T21:51:32.485Z,99244.31
2018-11-12T21:54:00.211Z,99193.00
2018-11-12T21:56:27.602Z,99238.24
2018-11-12T21:58:55.085Z,99243.87
2018-11-12T22:01:22.348Z,99239.58
2018-11-12T22:03:49.547Z,99251.56
2018-11-12T22:06:16.835Z,99257.23
2018-11-12T22:08:44.248Z,99247.50
2018-11-12T22:11:11.531Z,99253.69
2018-11-12T22:13:39.074Z,99240.77
2018-11-12T22:16:06.662Z,99253.73
2018-11-12T22:18:34.296Z,99254.53
2018-11-12T22:21:01.593Z,99260.07
2018-11-12T22:23:28.886Z,99272.00
2018-11-12T22:25:56.161Z,99288.03
2018-11-12T22:28:24.098Z,99294.45
2018-11-12T22:30:51.360Z,99296.34
2018-11-12T22:33:18.612Z,99277.16
2018-11-12T22:35:45.757Z,99275.75
2018-11-12T22:38:14.034Z,99276.56
2018-11-12T22:40:41.603Z,99290.36
2018-11-12T22:43:08.850Z,99303.09
2018-11-12T22:45:36.188Z,99270.11
2018-11-12T22:48:03.768Z,99271.09
2018-11-12T22:50:31.165Z,99279.95
2018-11-12T22:52:58.594Z,99283.91
2018-11-12T22:55:25.899Z,99300.16
2018-11-12T22:57:53.221Z,99284.23
2018-11-12T23:00:27.754Z,99282.88
2018-11-12T23:02:55.507Z,99279.22
2018-11-12T23:05:23.139Z,99311.64
2018-11-12T23:07:50.998Z,99312.67
2018-11-12T23:10:18.873Z,99307.66
2018-11-12T23:12:46.136Z,99298.86
2018-11-12T23:15:13.714Z,99315.33
2018-11-12T23:17:41.048Z,99319.89
2018-11-12T23:20:10.868Z,99311.11
2018-11-12T23:22:38.300Z,99330.33
2018-11-12T23:25:06.072Z,99319.69
2018-11-12T23:27:33.468Z,99320.73
2018-11-12T23:30:00.779Z,99327.57
2018-11-12T23:32:28.915Z,99321.19
2018-11-12T23:34:56.327Z,99306.02
2018-11-12T23:37:23.684Z,99290.88
2018-11-12T23:39:51.083Z,99298.86
2018-11-12T23:42:18.395Z,99311.41
2018-11-12T23:44:45.692Z,99312.46
2018-11-12T23:47:12.986Z,99316.52
2018-11-12T23:49:40.153Z,99312.26
2018-11-12T23:52:07.427Z,99304.34
2018-11-12T23:54:34.782Z,99314.47
2018-11-12T23:57:02.133Z,99314.98
2018-11-12T23:59:29.655Z,99322.66
